createdAt,value
2023-04-09T00:01:32.973Z,101039.61
2023-04-09T00:04:01.748Z,101046.24
2023-04-09T00:06:30.073Z,101045.95
2023-04-09T00:08:58.347Z,101043.67
2023-04-09T00:11:29.350Z,101042.57
2023-04-09T00:13:58.935Z,101041.79
2023-04-09T00:16:27.380Z,101040.58
2023-04-09T00:18:56.512Z,101042.86
2023-04-09T00:21:24.897Z,101042.34
2023-04-09T00:23:53.539Z,101037.16
2023-04-09T00:26:21.621Z,101037.14
2023-04-09T00:28:52.470Z,101033.29
2023-04-09T00:31:22.355Z,101026.80
2023-04-09T00:33:50.888Z,101024.75
2023-04-09T00:36:19.100Z,101023.33
2023-04-09T00:38:48.776Z,101022.43
2023-04-09T00:41:18.380Z,101019.15
2023-04-09T00:43:46.911Z,101019.55
2023-04-09T00:46:16.341Z,101019.36
2023-04-09T00:48:44.647Z,101020.20
2023-04-09T00:51:13.034Z,101023.13
2023-04-09T00:53:44.198Z,101027.66
2023-04-09T00:56:12.547Z,101030.20
2023-04-09T00:58:41.381Z,101031.29
2023-04-09T01:01:09.452Z,101032.75
2023-04-09T01:03:37.997Z,101035.98
2023-04-09T01:06:11.504Z,101038.45
2023-04-09T01:08:58.357Z,101041.98
2023-04-09T01:11:59.693Z,101048.24
2023-04-09T01:14:53.638Z,101051.39
2023-04-09T01:17:38.276Z,101051.70
2023-04-09T01:20:14.963Z,101049.30
2023-04-09T01:22:58.935Z,101048.30
2023-04-09T01:25:40.599Z,101047.91
2023-04-09T01:28:20.036Z,101053.39
2023-04-09T01:30:49.883Z,101057.22
2023-04-09T01:33:19.561Z,101059.86
2023-04-09T01:35:48.683Z,101063.17
2023-04-09T01:38:18.985Z,101061.38
2023-04-09T01:40:47.873Z,101059.83
2023-04-09T01:43:17.530Z,101060.11
2023-04-09T01:45:47.431Z,101060.45
2023-04-09T01:48:16.411Z,101060.83
2023-04-09T01:50:47.433Z,101065.20
2023-04-09T01:53:15.726Z,101066.92
2023-04-09T01:55:44.305Z,101067.79
2023-04-09T01:58:12.339Z,101067.52
2023-04-09T02:00:47.055Z,101064.30
2023-04-09T02:03:20.019Z,101068.96
2023-04-09T02:05:56.549Z,101072.55
2023-04-09T02:08:25.235Z,101076.89
2023-04-09T02:10:55.919Z,101079.46
2023-04-09T02:13:26.082Z,101073.98
2023-04-09T02:15:58.790Z,101068.11
2023-04-09T02:18:28.778Z,101068.56
2023-04-09T02:20:57.275Z,101071.52
2023-04-09T02:23:27.803Z,101068.09
2023-04-09T02:25:56.076Z,101072.11
2023-04-09T02:28:26.499Z,101067.08
2023-04-09T02:30:55.110Z,101070.45
2023-04-09T02:33:23.455Z,101071.70
2023-04-09T02:35:51.913Z,101074.15
2023-04-09T02:38:21.358Z,101073.05
2023-04-09T02:40:55.158Z,101073.64
2023-04-09T02:43:24.872Z,101078.05
2023-04-09T02:45:53.149Z,101078.70
2023-04-09T02:48:22.143Z,101073.60
2023-04-09T02:50:51.446Z,101072.40
2023-04-09T02:53:21.685Z,101073.40
2023-04-09T02:55:50.451Z,101071.16
2023-04-09T02:58:19.065Z,101070.84
2023-04-09T03:00:49.613Z,101066.85
2023-04-09T03:03:18.438Z,101066.84
2023-04-09T03:05:47.040Z,101070.80
2023-04-09T03:08:15.130Z,101072.56
2023-04-09T03:10:46.464Z,101072.21
2023-04-09T03:13:15.562Z,101071.60
2023-04-09T03:15:46.609Z,101072.70
2023-04-09T03:18:17.120Z,101068.14
2023-04-09T03:20:45.511Z,101068.81
2023-04-09T03:23:19.931Z,101073.91
2023-04-09T03:25:49.159Z,101075.46
2023-04-09T03:28:18.166Z,101077.19
2023-04-09T03:30:49.266Z,101078.53
2023-04-09T03:33:19.709Z,101080.40
2023-04-09T03:35:53.267Z,101076.34
2023-04-09T03:38:30.103Z,101073.94
2023-04-09T03:40:59.581Z,101077.33
2023-04-09T03:44:34.211Z,101073.13
2023-04-09T03:47:09.250Z,101075.15
2023-04-09T03:49:38.400Z,101074.85
2023-04-09T03:52:14.916Z,101079.84
2023-04-09T03:54:45.852Z,101079.60
2023-04-09T03:57:17.919Z,101079.48
2023-04-09T03:59:52.132Z,101075.55
2023-04-09T04:02:22.560Z,101076.74
2023-04-09T04:04:58.516Z,101074.34
2023-04-09T04:07:30.082Z,101076.27
2023-04-09T04:10:05.716Z,101084.43
2023-04-09T04:12:35.712Z,101086.73
2023-04-09T04:15:08.473Z,101087.79
2023-04-09T04:17:56.619Z,101087.99
2023-04-09T04:20:40.266Z,101090.17
2023-04-09T04:23:31.267Z,101090.63
2023-04-09T04:26:11.270Z,101093.77
2023-04-09T04:28:40.039Z,101099.40
2023-04-09T04:31:10.829Z,101102.25
2023-04-09T04:33:41.310Z,101100.67
2023-04-09T04:36:13.580Z,101102.45
2023-04-09T04:38:46.366Z,101104.14
2023-04-09T04:41:42.951Z,101100.38
2023-04-09T04:44:16.333Z,101099.82
2023-04-09T04:46:47.053Z,101099.71
2023-04-09T04:49:15.824Z,101098.05
2023-04-09T04:51:49.213Z,101098.15
2023-04-09T04:54:17.700Z,101093.73
2023-04-09T04:56:52.326Z,101100.11
2023-04-09T04:59:38.982Z,101104.18
2023-04-09T05:02:08.559Z,101102.92
2023-04-09T05:04:56.089Z,101105.52
2023-04-09T05:07:31.717Z,101106.90
2023-04-09T05:10:00.095Z,101103.21
2023-04-09T05:12:36.527Z,101106.48
2023-04-09T05:15:08.906Z,101106.79
2023-04-09T05:17:43.285Z,101109.02
2023-04-09T05:20:12.763Z,101108.20
2023-04-09T05:23:13.850Z,101110.26
2023-04-09T05:25:49.480Z,101109.48
2023-04-09T05:28:26.540Z,101108.94
2023-04-09T05:31:13.510Z,101109.08
2023-04-09T05:33:46.818Z,101108.17
2023-04-09T05:36:20.048Z,101106.34
2023-04-09T05:38:56.207Z,101106.26
2023-04-09T05:41:24.606Z,101105.59
2023-04-09T05:44:13.190Z,101106.37
2023-04-09T05:46:46.340Z,101109.98
2023-04-09T05:49:16.668Z,101108.22
2023-04-09T05:51:45.552Z,101107.16
2023-04-09T05:54:17.378Z,101112.80
2023-04-09T05:56:46.596Z,101115.88
2023-04-09T05:59:21.010Z,101116.67
2023-04-09T06:01:51.674Z,101120.98
2023-04-09T06:04:20.897Z,101119.14
2023-04-09T06:06:53.648Z,101123.00
2023-04-09T06:09:21.969Z,101130.05
2023-04-09T06:11:50.402Z,101129.08
2023-04-09T06:14:18.715Z,101132.29
2023-04-09T06:16:51.373Z,101131.60
2023-04-09T06:19:19.902Z,101134.89
2023-04-09T06:21:48.431Z,101137.97
2023-04-09T06:24:17.417Z,101138.41
2023-04-09T06:26:46.206Z,101139.45
2023-04-09T06:29:14.384Z,101142.94
2023-04-09T06:31:43.909Z,101144.81
2023-04-09T06:34:12.011Z,101142.53
2023-04-09T06:36:44.128Z,101142.21
2023-04-09T06:39:12.508Z,101142.23
2023-04-09T06:41:40.847Z,101145.49
2023-04-09T06:44:26.305Z,101142.34
2023-04-09T06:46:54.550Z,101143.13
2023-04-09T06:49:27.991Z,101142.07
2023-04-09T06:51:56.517Z,101144.77
2023-04-09T06:54:25.002Z,101142.80
2023-04-09T06:56:58.706Z,101137.09
2023-04-09T06:59:27.596Z,101139.40
2023-04-09T07:01:56.740Z,101137.88
2023-04-09T07:04:26.434Z,101138.48
2023-04-09T07:06:55.404Z,101140.09
2023-04-09T07:09:23.404Z,101138.02
2023-04-09T07:11:52.869Z,101138.50
2023-04-09T07:14:21.250Z,101140.27
2023-04-09T07:16:49.351Z,101139.96
2023-04-09T07:19:18.316Z,101136.81
2023-04-09T07:21:47.523Z,101138.19
2023-04-09T07:24:16.011Z,101137.95
2023-04-09T07:26:44.270Z,101138.40
2023-04-09T07:29:12.854Z,101137.98
2023-04-09T07:31:41.355Z,101137.62
2023-04-09T07:34:11.145Z,101136.95
2023-04-09T07:36:41.290Z,101138.17
2023-04-09T07:39:09.300Z,101131.28
2023-04-09T07:41:37.720Z,101134.38
2023-04-09T07:44:07.655Z,101138.34
2023-04-09T07:46:36.676Z,101140.01
2023-04-09T07:49:06.131Z,101139.94
2023-04-09T07:51:34.149Z,101136.66
2023-04-09T07:54:02.692Z,101139.14
2023-04-09T07:56:32.405Z,101138.46
2023-04-09T07:59:00.479Z,101137.04
2023-04-09T08:01:28.750Z,101139.36
2023-04-09T08:03:58.244Z,101142.45
2023-04-09T08:06:27.248Z,101143.37
2023-04-09T08:08:55.425Z,101142.33
2023-04-09T08:11:26.264Z,101143.95
2023-04-09T08:13:54.744Z,101144.39
2023-04-09T08:16:28.212Z,101146.46
2023-04-09T08:18:57.545Z,101146.92
2023-04-09T08:21:26.800Z,101145.30
2023-04-09T08:23:59.635Z,101148.25
2023-04-09T08:26:27.903Z,101142.70
2023-04-09T08:28:56.012Z,101137.14
2023-04-09T08:31:24.285Z,101135.52
2023-04-09T08:33:53.674Z,101133.77
2023-04-09T08:36:21.849Z,101134.19
2023-04-09T08:38:50.284Z,101132.77
2023-04-09T08:41:24.544Z,101135.20
2023-04-09T08:43:58.124Z,101131.51
2023-04-09T08:46:27.867Z,101126.88
2023-04-09T08:48:57.394Z,101125.16
2023-04-09T08:51:25.839Z,101122.09
2023-04-09T08:54:03.641Z,101118.56
2023-04-09T08:56:33.065Z,101117.17
2023-04-09T08:59:01.816Z,101114.38
2023-04-09T09:01:31.128Z,101112.84
2023-04-09T09:04:02.161Z,101111.20
2023-04-09T09:06:35.713Z,101112.21
2023-04-09T09:09:11.660Z,101108.59
2023-04-09T09:11:43.760Z,101108.45
2023-04-09T09:14:18.544Z,101111.09
2023-04-09T09:17:04.070Z,101110.29
2023-04-09T09:19:36.662Z,101110.63
2023-04-09T09:22:11.135Z,101110.74
2023-04-09T09:24:51.865Z,101109.40
2023-04-09T09:27:36.924Z,101102.29
2023-04-09T09:30:07.358Z,101098.70
2023-04-09T09:32:35.913Z,101099.77
2023-04-09T09:35:07.716Z,101100.43
2023-04-09T09:37:36.231Z,101098.38
2023-04-09T09:40:05.079Z,101092.48
2023-04-09T09:42:37.411Z,101094.22
2023-04-09T09:45:17.750Z,101088.11
2023-04-09T09:47:48.990Z,101086.11
2023-04-09T09:50:17.793Z,101084.48
2023-04-09T09:52:46.181Z,101084.71
2023-04-09T09:55:15.728Z,101088.18
2023-04-09T09:57:44.832Z,101084.32
2023-04-09T10:00:19.200Z,101084.56
2023-04-09T10:03:20.144Z,101086.93
2023-04-09T10:05:48.808Z,101085.15
2023-04-09T10:08:18.338Z,101084.43
2023-04-09T10:10:47.137Z,101080.23
2023-04-09T10:13:34.456Z,101081.29
2023-04-09T10:16:03.224Z,101077.13
2023-04-09T10:18:35.045Z,101074.23
2023-04-09T10:21:42.613Z,101071.85
2023-04-09T10:24:19.572Z,101068.30
2023-04-09T10:26:47.834Z,101067.50
2023-04-09T10:29:16.886Z,101069.73
2023-04-09T10:32:21.816Z,101065.48
2023-04-09T10:35:09.801Z,101062.73
2023-04-09T10:37:40.189Z,101058.55
2023-04-09T10:40:19.869Z,101059.05
2023-04-09T10:42:49.317Z,101052.89
2023-04-09T10:45:23.046Z,101047.31
2023-04-09T10:47:54.218Z,101045.59
2023-04-09T10:50:26.711Z,101041.69
2023-04-09T10:52:59.904Z,101037.52
2023-04-09T10:55:40.191Z,101038.17
2023-04-09T10:58:13.699Z,101034.81
2023-04-09T11:00:46.297Z,101034.70
2023-04-09T11:03:26.340Z,101032.39
2023-04-09T11:06:06.174Z,101027.70
2023-04-09T11:08:40.206Z,101023.87
2023-04-09T11:11:09.157Z,101015.53
2023-04-09T11:13:41.815Z,101013.60
2023-04-09T11:16:24.081Z,101010.34
2023-04-09T11:19:03.125Z,101008.98
2023-04-09T11:21:46.904Z,101011.33
2023-04-09T11:24:16.047Z,101007.05
2023-04-09T11:26:44.292Z,101002.64
2023-04-09T11:29:15.131Z,100996.39
2023-04-09T11:31:49.735Z,100994.70
2023-04-09T11:34:37.845Z,100995.54
2023-04-09T11:37:09.395Z,100989.89
2023-04-09T11:39:40.958Z,100984.98
2023-04-09T11:42:13.615Z,100979.64
2023-04-09T11:44:47.321Z,100973.77
2023-04-09T11:47:31.878Z,100970.87
2023-04-09T11:50:03.135Z,100964.30
2023-04-09T11:52:37.050Z,100964.41
2023-04-09T11:55:09.412Z,100958.98
2023-04-09T11:57:50.733Z,100957.29
2023-04-09T12:00:21.177Z,100954.69
2023-04-09T12:03:04.069Z,100952.95
2023-04-09T12:05:49.217Z,100956.96
2023-04-09T12:08:23.819Z,100954.77
2023-04-09T12:11:08.187Z,100953.58
2023-04-09T12:13:44.749Z,100956.17
2023-04-09T12:16:14.280Z,100953.89
2023-04-09T12:19:03.100Z,100950.89
2023-04-09T12:21:49.976Z,100949.62
2023-04-09T12:24:20.160Z,100948.95
2023-04-09T12:26:53.841Z,100953.94
2023-04-09T12:29:22.216Z,100955.75
2023-04-09T12:31:51.198Z,100954.91
2023-04-09T12:34:27.332Z,100954.48
2023-04-09T12:36:56.237Z,100951.85
2023-04-09T12:39:24.461Z,100952.16
2023-04-09T12:41:56.135Z,100959.21
2023-04-09T12:44:37.399Z,100980.95
2023-04-09T12:47:05.785Z,100986.58
2023-04-09T12:49:41.727Z,100988.75
2023-04-09T12:52:11.145Z,100992.07
2023-04-09T12:54:42.470Z,100997.96
2023-04-09T12:57:13.029Z,101003.02
2023-04-09T12:59:45.354Z,101009.14
2023-04-09T13:02:13.798Z,101010.88
2023-04-09T13:04:43.131Z,101003.91
2023-04-09T13:07:13.204Z,100999.10
2023-04-09T13:09:46.111Z,100995.44
2023-04-09T13:12:15.690Z,100995.52
2023-04-09T13:14:47.796Z,100999.34
2023-04-09T13:17:18.951Z,100997.44
2023-04-09T13:19:48.628Z,100999.96
2023-04-09T13:22:18.352Z,101012.62
2023-04-09T13:24:48.351Z,101008.64
2023-04-09T13:27:18.787Z,101007.34
2023-04-09T13:29:51.256Z,101008.92
2023-04-09T13:32:21.259Z,101007.39
2023-04-09T13:34:51.585Z,101004.95
2023-04-09T13:37:20.178Z,101007.10
2023-04-09T13:39:50.080Z,101007.33
2023-04-09T13:42:19.259Z,101006.71
2023-04-09T13:44:47.460Z,101001.91
2023-04-09T13:47:17.315Z,101000.34
2023-04-09T13:49:51.598Z,100999.90
2023-04-09T13:52:19.787Z,101005.77
2023-04-09T13:54:53.276Z,101012.94
2023-04-09T13:57:26.233Z,101015.59
2023-04-09T13:59:54.652Z,101012.70
2023-04-09T14:02:28.194Z,101011.63
2023-04-09T14:04:57.234Z,101007.30
2023-04-09T14:07:27.148Z,101000.34
2023-04-09T14:09:55.730Z,101001.15
2023-04-09T14:12:24.275Z,100998.61
2023-04-09T14:14:52.312Z,101001.70
2023-04-09T14:17:20.731Z,101000.29
2023-04-09T14:19:49.029Z,101002.55
2023-04-09T14:22:19.188Z,100999.27
2023-04-09T14:24:48.351Z,101000.81
2023-04-09T14:27:17.141Z,100994.38
2023-04-09T14:29:46.450Z,100995.18
2023-04-09T14:32:23.323Z,101000.40
2023-04-09T14:35:11.258Z,101000.20
2023-04-09T14:37:42.406Z,101000.88
2023-04-09T14:40:13.859Z,100998.27
2023-04-09T14:42:45.820Z,101004.70
2023-04-09T14:45:25.062Z,101010.92
2023-04-09T14:47:55.128Z,101007.41
2023-04-09T14:50:26.554Z,101002.09
2023-04-09T14:52:56.929Z,101003.80
2023-04-09T14:55:44.952Z,101008.13
2023-04-09T14:58:19.727Z,101009.46
2023-04-09T15:00:58.988Z,101007.75
2023-04-09T15:03:31.484Z,101007.04
2023-04-09T15:06:12.602Z,101009.45
2023-04-09T15:08:40.883Z,101004.83
2023-04-09T15:11:18.078Z,101004.88
2023-04-09T15:13:56.467Z,101002.91
2023-04-09T15:16:27.479Z,100997.65
2023-04-09T15:19:05.427Z,100994.39
2023-04-09T15:21:38.859Z,100989.48
2023-04-09T15:24:08.155Z,100986.33
2023-04-09T15:26:39.995Z,100983.73
2023-04-09T15:29:22.176Z,100980.94
2023-04-09T15:31:56.467Z,100985.02
2023-04-09T15:34:32.674Z,100983.25
2023-04-09T15:37:04.543Z,100977.95
2023-04-09T15:39:32.816Z,100978.23
2023-04-09T15:42:02.308Z,100972.61
2023-04-09T15:44:31.728Z,100972.65
2023-04-09T15:47:10.536Z,100971.54
2023-04-09T15:49:43.116Z,100970.59
2023-04-09T15:52:15.865Z,100966.50
2023-04-09T15:54:46.992Z,100964.66
2023-04-09T15:57:22.261Z,100962.59
2023-04-09T16:12:43.937Z,100968.83
2023-04-09T16:15:13.963Z,100967.98
2023-04-09T16:17:45.831Z,100969.54
2023-04-09T16:20:26.750Z,100964.73
2023-04-09T16:22:57.135Z,100967.00
2023-04-09T16:25:26.778Z,100962.46
2023-04-09T16:27:57.254Z,100959.84
2023-04-09T16:30:28.945Z,100958.75
2023-04-09T16:32:59.026Z,100957.20
2023-04-09T16:35:27.168Z,100957.02
2023-04-09T16:38:09.566Z,100954.92
2023-04-09T16:40:39.690Z,100960.40
2023-04-09T16:43:12.299Z,100962.10
2023-04-09T16:45:40.814Z,100965.07
2023-04-09T16:48:28.838Z,100967.16
2023-04-09T16:51:03.922Z,100968.09
2023-04-09T16:53:38.833Z,100969.48
2023-04-09T16:56:10.791Z,100971.93
2023-04-09T16:58:39.520Z,100976.73
2023-04-09T17:01:08.428Z,100979.05
2023-04-09T17:03:49.828Z,100980.21
2023-04-09T17:06:18.777Z,100987.53
2023-04-09T17:08:48.062Z,100990.29
2023-04-09T17:11:17.257Z,100987.84
2023-04-09T17:13:51.796Z,100990.50
2023-04-09T17:16:24.924Z,100993.85
2023-04-09T17:18:53.525Z,100992.52
2023-04-09T17:21:27.611Z,100997.14
2023-04-09T17:24:04.678Z,100998.90
2023-04-09T17:26:34.903Z,100997.82
2023-04-09T17:29:04.291Z,100999.95
2023-04-09T17:31:32.676Z,101000.88
2023-04-09T17:34:19.600Z,101004.08
2023-04-09T17:36:56.584Z,101005.23
2023-04-09T17:39:32.845Z,101006.61
2023-04-09T17:42:03.690Z,101008.55
2023-04-09T17:44:39.420Z,101015.03
2023-04-09T17:47:12.520Z,101016.98
2023-04-09T17:49:42.702Z,101015.52
2023-04-09T17:52:15.005Z,101013.67
2023-04-09T17:54:47.211Z,101015.10
2023-04-09T17:57:15.664Z,101019.30
2023-04-09T17:59:49.109Z,101021.61
2023-04-09T18:02:18.212Z,101020.41
2023-04-09T18:04:53.398Z,101023.98
2023-04-09T18:07:22.485Z,101027.45
2023-04-09T18:09:52.428Z,101031.89
2023-04-09T18:12:20.877Z,101029.65
2023-04-09T18:14:59.509Z,101030.08
2023-04-09T18:17:32.609Z,101030.36
2023-04-09T18:20:01.563Z,101031.52
2023-04-09T18:22:30.986Z,101036.07
2023-04-09T18:25:00.087Z,101036.50
2023-04-09T18:27:29.892Z,101037.59
2023-04-09T18:29:59.502Z,101038.55
2023-04-09T18:32:39.922Z,101037.93
2023-04-09T18:35:11.230Z,101037.19
2023-04-09T18:37:42.662Z,101041.25
2023-04-09T18:40:13.902Z,101040.73
2023-04-09T18:42:42.023Z,101037.77
2023-04-09T18:45:11.279Z,101036.41
2023-04-09T18:47:40.960Z,101036.73
2023-04-09T18:50:10.701Z,101039.77
2023-04-09T18:52:44.216Z,101036.78
2023-04-09T18:55:13.815Z,101038.62
2023-04-09T18:57:44.443Z,101038.16
2023-04-09T19:00:13.345Z,101036.37
2023-04-09T19:02:41.763Z,101037.34
2023-04-09T19:05:12.037Z,101032.60
2023-04-09T19:07:40.420Z,101035.77
2023-04-09T19:10:09.325Z,101038.33
2023-04-09T19:12:38.221Z,101037.91
2023-04-09T19:15:07.840Z,101040.36
2023-04-09T19:17:35.962Z,101041.00
2023-04-09T19:20:05.745Z,101040.14
2023-04-09T19:22:34.193Z,101040.09
2023-04-09T19:25:07.529Z,101036.80
2023-04-09T19:27:36.470Z,101038.15
2023-04-09T19:30:08.169Z,101035.80
2023-04-09T19:32:37.038Z,101033.09
2023-04-09T19:35:07.182Z,101034.01
2023-04-09T19:37:35.328Z,101036.77
2023-04-09T19:40:04.762Z,101039.30
2023-04-09T19:42:33.460Z,101040.39
2023-04-09T19:45:05.871Z,101037.00
2023-04-09T19:47:35.002Z,101038.04
2023-04-09T19:50:03.267Z,101034.20
2023-04-09T19:52:33.282Z,101036.06
2023-04-09T19:55:02.119Z,101036.05
2023-04-09T19:57:32.475Z,101034.72
2023-04-09T20:00:01.060Z,101032.80
2023-04-09T20:02:37.949Z,101031.61
2023-04-09T20:05:07.761Z,101030.20
2023-04-09T20:07:36.282Z,101029.23
2023-04-09T20:12:57.633Z,101032.16
2023-04-09T20:15:30.284Z,101033.65
2023-04-09T20:18:02.012Z,101034.41
2023-04-09T20:20:33.487Z,101033.41
2023-04-09T20:23:03.806Z,101035.13
2023-04-09T20:25:36.825Z,101035.27
2023-04-09T20:28:10.604Z,101027.40
2023-04-09T20:30:40.934Z,101026.25
2023-04-09T20:33:09.871Z,101022.86
2023-04-09T20:35:42.850Z,101024.23
2023-04-09T20:38:12.881Z,101019.34
2023-04-09T20:40:42.013Z,101020.67
2023-04-09T20:43:13.040Z,101023.32
2023-04-09T20:45:47.437Z,101029.09
2023-04-09T20:48:19.060Z,101029.42
2023-04-09T20:50:47.183Z,101033.09
2023-04-09T20:53:18.049Z,101031.23
2023-04-09T20:55:49.053Z,101031.11
2023-04-09T20:58:19.997Z,101032.73
2023-04-09T21:01:06.853Z,101032.47
2023-04-09T21:03:36.177Z,101034.13
2023-04-09T21:06:06.886Z,101032.30
2023-04-09T21:08:36.724Z,101033.33
2023-04-09T21:11:07.376Z,101030.45
2023-04-09T21:13:53.790Z,101031.20
2023-04-09T21:16:27.406Z,101030.56
2023-04-09T21:19:09.300Z,101030.81
2023-04-09T21:21:41.364Z,101030.69
2023-04-09T21:24:20.506Z,101031.84
2023-04-09T21:26:52.371Z,101030.52
2023-04-09T21:29:23.692Z,101035.69
2023-04-09T21:32:06.501Z,101033.24
2023-04-09T21:34:39.657Z,101034.73
2023-04-09T21:37:14.464Z,101032.46
2023-04-09T21:39:52.360Z,101035.21
2023-04-09T21:42:25.295Z,101034.88
2023-04-09T21:44:57.088Z,101033.06
2023-04-09T21:47:28.734Z,101034.88
2023-04-09T21:50:18.536Z,101032.63
2023-04-09T21:53:03.722Z,101031.98
2023-04-09T21:55:37.475Z,101033.48
2023-04-09T21:58:08.329Z,101030.91
2023-04-09T22:00:39.522Z,101034.62
2023-04-09T22:03:19.809Z,101029.73
2023-04-09T22:05:54.964Z,101027.25
2023-04-09T22:08:26.321Z,101022.89
2023-04-09T22:10:59.359Z,101019.04
2023-04-09T22:13:35.223Z,101017.86
2023-04-09T22:16:08.835Z,101020.63
2023-04-09T22:18:39.889Z,101024.02
2023-04-09T22:21:16.110Z,101023.98
2023-04-09T22:23:45.607Z,101025.62
2023-04-09T22:26:14.344Z,101026.02
2023-04-09T22:28:43.791Z,101032.15
2023-04-09T22:31:12.645Z,101028.38
2023-04-09T22:33:41.633Z,101024.52
2023-04-09T22:36:10.486Z,101026.52
2023-04-09T22:38:43.311Z,101027.46
2023-04-09T22:41:11.544Z,101025.31
2023-04-09T22:43:39.615Z,101030.70
2023-04-09T22:46:10.637Z,101024.25
2023-04-09T22:48:44.587Z,101025.91
2023-04-09T22:51:13.930Z,101026.46
2023-04-09T22:53:42.227Z,101022.75
2023-04-09T22:56:11.383Z,101023.86
2023-04-09T22:58:41.291Z,101024.95
2023-04-09T23:01:09.656Z,101027.73
2023-04-09T23:03:41.844Z,101026.70
2023-04-09T23:06:13.651Z,101030.19
2023-04-09T23:08:43.049Z,101029.73
2023-04-09T23:11:11.280Z,101029.23
2023-04-09T23:13:45.550Z,101027.91
2023-04-09T23:16:13.848Z,101029.64
2023-04-09T23:18:44.454Z,101028.52
2023-04-09T23:21:16.504Z,101029.00
2023-04-09T23:23:44.951Z,101025.30
2023-04-09T23:26:21.802Z,101022.21
2023-04-09T23:28:52.662Z,101015.17
2023-04-09T23:31:26.324Z,101016.55
2023-04-09T23:33:55.049Z,101016.61
2023-04-09T23:36:26.765Z,101017.59
2023-04-09T23:38:59.365Z,101012.88
2023-04-09T23:44:10.711Z,101010.33
2023-04-09T23:46:53.398Z,101009.14
2023-04-09T23:49:21.719Z,101011.32
2023-04-09T23:51:55.637Z,101012.42
2023-04-09T23:54:24.241Z,101013.58
2023-04-09T23:57:06.313Z,101016.86
2023-04-09T23:59:36.032Z,101015.01
